Terminal Aerodrome Forecast
Issued by NWS

Home | Current Version | Previous Version | Text Only | Print | Product List | Glossary On
Versions: 1 2 3 4 5 6 7 8 9 10 11 12 13 14 15 16 17 18 19 20 21 22 23 24 25 26 27 28
000
FTUS45 KGJT 202333
TAFTEX
TAF
KTEX 202333Z 2100/2124 22015G30KT P6SM FEW090 FEW150
     FM210400 22011G25KT P6SM FEW090 FEW250 WS020/24040KT
     FM211000 14005KT P6SM VCSH FEW060 SCT120 WS020/25030KT
     FM211300 21009KT P6SM VCSH FEW050 SCT120
     FM211800 22016G37KT P6SM FEW050 FEW120=

USA.gov is the U.S. government's official web portal to all federal, state and local government web resources and services.